ProRodeoTv.Com
Red

PRCA Stock Statistics

SEARCH BY:
Stock Rodeo Contestant Stock Contractor

Lane Selz

EVENT:
Unofficial results reflect placement at time of Web posting and can change.

SEASON BREAKDOWN

Season Attempts Qual Rides Re-rides Ride %
2017 50 13 0 26.00 %
2016 49 11 0 22.45 %
2015 2 0 0 0.00 %
Totals 101 24 0 0.00 %

RODEO DETAIL

Date Location Rodeo SC Brand Ride Comments Stock Score Contestant Score
9/28/2017 Bakersfield, CA Kern County Fair Rodeo FU 975/0 0.00 19.00 / 17.00 0.00 / 0.00
7/28/2017 Cheyenne, WY Cheyenne Frontier Days SS 123 0.00 20.00 / 20.50 0.00 / 0.00
7/27/2017 Cheyenne, WY Cheyenne Frontier Days SS 4R1 72.00 17.00 / 18.00 18.00 / 19.00
7/24/2017 Spanish Fork, UT Spanish Fork Fiesta Days Rodeo FR 407 0.00 21.00 / 20.50 0.00 / 0.00
7/21/2017 Salinas, CA California Rodeo Salinas WR 201 0.00 21.00 / 21.00 0.00 / 0.00
7/8/2017 Spooner, WI Heart Of The North Rodeo UR 17 0.00 17.00 / 12.00 0.00 / 0.00
7/7/2017 Hamel, MN Hamel Rodeo & Bull Ridin Bonanza JB 101 0.00 17.00 / 0.00 0.00 / 0.00
7/6/2017 Estes Park, CO Rooftop Rodeo CB K3 0.00 18.00 / 20.00 0.00 / 0.00
7/3/2017 Cody, WY Cody Stampede FR 708 0.00 20.00 / 20.00 0.00 / 0.00
7/3/2017 Livingston, MT Livingston Roundup KC 166 0.00 19.00 / 21.00 0.00 / 0.00
7/1/2017 Oakley City, UT Oakley Independence Day Rodeo BT 729 80.00 20.00 / 19.00 20.00 / 21.00
7/1/2017 St. Paul, OR St. Paul Rodeo CH 317 0.00 20.50 / 20.50 0.00 / 0.00
6/28/2017 Prescott, AZ World s Oldest Rodeo HV PO18 0.00 19.00 / 16.00 0.00 / 0.00
6/26/2017 Greeley, CO Greeley Stampede Xtreme Bulls PR 84A 0.00 20.00 / 22.00 0.00 / 0.00
6/22/2017 Santa Fe, NM Rodeo de Sante Fe HV PO18 82.50 19.50 / 21.00 22.00 / 20.00
6/22/2017 Reno, NV Reno Rodeo FF 974 0.00 17.00 / 16.50 0.00 / 0.00
6/21/2017 Pecos, TX West Of The Pecos Rodeo CR 63 0.00 22.00 / 22.50 0.00 / 0.00
6/10/2017 Glennville, CA Glennville Round-Up RO H24 69.50 18.50 / 16.00 19.00 / 16.00
6/8/2017 Sisters, OR Sisters Rodeo CH 608 0.00 22.00 / 21.00 0.00 / 0.00
6/8/2017 Union, OR EOLS Ed Miller Xtreme Bulls FF 318 69.00 17.00 / 17.00 18.00 / 17.00
6/6/2017 Sisters, OR Sisters Rodeo Xtreme Bulls CH 200 0.00 19.00 / 17.00 0.00 / 0.00
6/3/2017 Jurupa Valley, CA Jurupa Valley Pro Rodeo HR 14 0.00 19.00 / 21.00 0.00 / 0.00
6/1/2017 Santa Maria, CA Santa Maria Elks Rodeo RO 3812 0.00 19.50 / 20.50 0.00 / 0.00
5/20/2017 Ramona, CA Ramona Rodeo HR 880 0.00 21.50 / 18.00 0.00 / 0.00
5/18/2017 Hayward, CA Rowell Ranch Rodeo FU 975/1 0.00 20.50 / 20.00 0.00 / 0.00
Page of 2
Per Page
 
 
 
Copyright © 2017 Professional Rodeo Cowboys Association. All rights reserved. No portion of ProRodeo.com may be duplicated, redistributed or manipulated in any form. By accessing any information beyond this page, you agree to abide by the Terms of Use.
PRCA Wrangler National Finals Rodeo Wrangler Champions Challenge Justin Boots Playoffs Xtreme Bulls RAM National Circuit Finals Rodeo ProRodeo Gear ProRodeoTv.com var gaJsHost = (("https:" == document.location.protocol) ? "https://ssl." : "http://www."); document.write(unescape("%3Cscript src='" + gaJsHost + "google-analytics.com/ga.js' type='text/javascript'%3E%3C/script%3E"));